sensor_id;sensor_type;location;lat;lon;timestamp;P1;durP1;ratioP1;P2;durP2;ratioP2
61200;SDS011;47065;52.898;6.992;2023-03-23T00:02:04;11.30;;;8.13;;
61200;SDS011;47065;52.898;6.992;2023-03-23T00:04:30;13.38;;;7.60;;
61200;SDS011;47065;52.898;6.992;2023-03-23T00:06:55;13.30;;;8.77;;
61200;SDS011;47065;52.898;6.992;2023-03-23T00:09:21;15.05;;;8.35;;
61200;SDS011;47065;52.898;6.992;2023-03-23T00:11:50;11.00;;;8.13;;
61200;SDS011;47065;52.898;6.992;2023-03-23T00:14:16;11.88;;;7.85;;
61200;SDS011;47065;52.898;6.992;2023-03-23T00:16:47;15.75;;;9.18;;
61200;SDS011;47065;52.898;6.992;2023-03-23T00:19:14;13.30;;;7.57;;
61200;SDS011;47065;52.898;6.992;2023-03-23T00:21:41;14.15;;;8.15;;
61200;SDS011;47065;52.898;6.992;2023-03-23T00:24:17;9.93;;;7.93;;
61200;SDS011;47065;52.898;6.992;2023-03-23T00:26:45;11.02;;;7.25;;
61200;SDS011;47065;52.898;6.992;2023-03-23T00:29:14;9.27;;;7.57;;
61200;SDS011;47065;52.898;6.992;2023-03-23T00:31:41;14.07;;;8.23;;
61200;SDS011;47065;52.898;6.992;2023-03-23T00:34:12;11.77;;;7.70;;
61200;SDS011;47065;52.898;6.992;2023-03-23T00:36:44;12.40;;;8.40;;
61200;SDS011;47065;52.898;6.992;2023-03-23T00:39:14;16.10;;;8.20;;
61200;SDS011;47065;52.898;6.992;2023-03-23T00:41:43;10.02;;;6.90;;
61200;SDS011;47065;52.898;6.992;2023-03-23T00:44:11;12.90;;;7.22;;
61200;SDS011;47065;52.898;6.992;2023-03-23T00:46:45;11.40;;;6.70;;
61200;SDS011;47065;52.898;6.992;2023-03-23T00:49:14;10.68;;;7.22;;
61200;SDS011;47065;52.898;6.992;2023-03-23T00:51:44;9.80;;;6.90;;
61200;SDS011;47065;52.898;6.992;2023-03-23T00:54:12;13.80;;;7.18;;
61200;SDS011;47065;52.898;6.992;2023-03-23T00:56:38;7.93;;;6.60;;
61200;SDS011;47065;52.898;6.992;2023-03-23T00:59:04;12.52;;;7.78;;
61200;SDS011;47065;52.898;6.992;2023-03-23T01:01:30;13.15;;;7.18;;
61200;SDS011;47065;52.898;6.992;2023-03-23T01:03:57;14.85;;;7.28;;
61200;SDS011;47065;52.898;6.992;2023-03-23T01:06:26;10.60;;;6.18;;
61200;SDS011;47065;52.898;6.992;2023-03-23T01:08:53;11.40;;;6.72;;
61200;SDS011;47065;52.898;6.992;2023-03-23T01:11:19;10.48;;;6.05;;
61200;SDS011;47065;52.898;6.992;2023-03-23T01:13:45;9.32;;;6.40;;
61200;SDS011;47065;52.898;6.992;2023-03-23T01:16:11;9.60;;;5.53;;
61200;SDS011;47065;52.898;6.992;2023-03-23T01:18:38;8.45;;;5.75;;
61200;SDS011;47065;52.898;6.992;2023-03-23T01:21:08;7.22;;;5.72;;
61200;SDS011;47065;52.898;6.992;2023-03-23T01:23:36;7.45;;;4.90;;
61200;SDS011;47065;52.898;6.992;2023-03-23T01:26:13;7.00;;;5.15;;
61200;SDS011;47065;52.898;6.992;2023-03-23T01:28:41;9.00;;;4.53;;
61200;SDS011;47065;52.898;6.992;2023-03-23T01:31:08;8.55;;;3.70;;
61200;SDS011;47065;52.898;6.992;2023-03-23T01:33:38;6.45;;;4.22;;
61200;SDS011;47065;52.898;6.992;2023-03-23T01:36:06;6.25;;;3.67;;
61200;SDS011;47065;52.898;6.992;2023-03-23T01:38:34;6.88;;;4.57;;
61200;SDS011;47065;52.898;6.992;2023-03-23T01:41:00;6.35;;;3.92;;
61200;SDS011;47065;52.898;6.992;2023-03-23T01:43:26;4.50;;;3.97;;
61200;SDS011;47065;52.898;6.992;2023-03-23T01:45:52;7.45;;;3.60;;
61200;SDS011;47065;52.898;6.992;2023-03-23T01:48:20;7.32;;;4.40;;
61200;SDS011;47065;52.898;6.992;2023-03-23T01:53:26;7.72;;;4.97;;
61200;SDS011;47065;52.898;6.992;2023-03-23T01:55:56;9.88;;;5.22;;
61200;SDS011;47065;52.898;6.992;2023-03-23T01:58:27;7.35;;;4.70;;
61200;SDS011;47065;52.898;6.992;2023-03-23T02:00:55;10.70;;;5.22;;
61200;SDS011;47065;52.898;6.992;2023-03-23T02:03:25;6.80;;;3.97;;
61200;SDS011;47065;52.898;6.992;2023-03-23T02:05:53;9.95;;;4.78;;
61200;SDS011;47065;52.898;6.992;2023-03-23T02:08:23;9.63;;;4.10;;
61200;SDS011;47065;52.898;6.992;2023-03-23T02:10:52;5.47;;;3.70;;
61200;SDS011;47065;52.898;6.992;2023-03-23T02:13:17;8.13;;;4.20;;
61200;SDS011;47065;52.898;6.992;2023-03-23T02:15:50;6.47;;;4.25;;
61200;SDS011;47065;52.898;6.992;2023-03-23T02:18:31;7.93;;;4.25;;
61200;SDS011;47065;52.898;6.992;2023-03-23T02:23:58;8.27;;;3.90;;
61200;SDS011;47065;52.898;6.992;2023-03-23T02:27:05;5.88;;;3.92;;
61200;SDS011;47065;52.898;6.992;2023-03-23T02:29:51;6.40;;;3.72;;
61200;SDS011;47065;52.898;6.992;2023-03-23T02:35:29;5.15;;;3.22;;
61200;SDS011;47065;52.898;6.992;2023-03-23T02:38:08;7.22;;;3.60;;
61200;SDS011;47065;52.898;6.992;2023-03-23T02:40:50;4.75;;;3.72;;
61200;SDS011;47065;52.898;6.992;2023-03-23T02:43:18;5.43;;;3.80;;
61200;SDS011;47065;52.898;6.992;2023-03-23T02:45:47;8.63;;;3.78;;
61200;SDS011;47065;52.898;6.992;2023-03-23T02:48:14;6.50;;;3.63;;
61200;SDS011;47065;52.898;6.992;2023-03-23T02:50:44;5.65;;;2.95;;
61200;SDS011;47065;52.898;6.992;2023-03-23T02:53:14;6.85;;;3.10;;
61200;SDS011;47065;52.898;6.992;2023-03-23T02:55:43;5.47;;;3.78;;
61200;SDS011;47065;52.898;6.992;2023-03-23T02:58:11;5.28;;;3.70;;
61200;SDS011;47065;52.898;6.992;2023-03-23T03:00:37;8.57;;;3.80;;
61200;SDS011;47065;52.898;6.992;2023-03-23T03:03:03;5.43;;;3.58;;
61200;SDS011;47065;52.898;6.992;2023-03-23T03:11:06;5.22;;;4.03;;
61200;SDS011;47065;52.898;6.992;2023-03-23T03:13:42;4.40;;;3.60;;
61200;SDS011;47065;52.898;6.992;2023-03-23T03:18:51;6.05;;;3.85;;
61200;SDS011;47065;52.898;6.992;2023-03-23T03:21:39;5.78;;;3.53;;
61200;SDS011;47065;52.898;6.992;2023-03-23T03:24:08;6.78;;;3.00;;
61200;SDS011;47065;52.898;6.992;2023-03-23T03:26:36;12.75;;;3.92;;
61200;SDS011;47065;52.898;6.992;2023-03-23T03:29:06;6.00;;;3.75;;
61200;SDS011;47065;52.898;6.992;2023-03-23T03:31:34;7.13;;;3.42;;
61200;SDS011;47065;52.898;6.992;2023-03-23T03:34:03;5.65;;;3.38;;
61200;SDS011;47065;52.898;6.992;2023-03-23T03:36:30;3.80;;;3.05;;
61200;SDS011;47065;52.898;6.992;2023-03-23T03:39:00;5.28;;;3.15;;
61200;SDS011;47065;52.898;6.992;2023-03-23T03:41:36;6.10;;;3.45;;
61200;SDS011;47065;52.898;6.992;2023-03-23T03:44:03;7.03;;;3.00;;
61200;SDS011;47065;52.898;6.992;2023-03-23T03:46:30;3.78;;;2.80;;
61200;SDS011;47065;52.898;6.992;2023-03-23T03:48:57;4.97;;;3.40;;
61200;SDS011;47065;52.898;6.992;2023-03-23T03:51:23;6.20;;;3.25;;
61200;SDS011;47065;52.898;6.992;2023-03-23T03:53:50;5.80;;;3.63;;
61200;SDS011;47065;52.898;6.992;2023-03-23T03:56:16;5.28;;;3.30;;
61200;SDS011;47065;52.898;6.992;2023-03-23T03:58:42;5.47;;;3.42;;
61200;SDS011;47065;52.898;6.992;2023-03-23T04:01:08;5.18;;;3.55;;
61200;SDS011;47065;52.898;6.992;2023-03-23T04:03:38;3.67;;;3.20;;
61200;SDS011;47065;52.898;6.992;2023-03-23T04:06:04;4.22;;;3.00;;
61200;SDS011;47065;52.898;6.992;2023-03-23T04:08:31;3.50;;;3.00;;
61200;SDS011;47065;52.898;6.992;2023-03-23T04:10:57;5.50;;;3.20;;
61200;SDS011;47065;52.898;6.992;2023-03-23T04:13:23;7.65;;;4.38;;
61200;SDS011;47065;52.898;6.992;2023-03-23T04:15:49;8.77;;;3.60;;
61200;SDS011;47065;52.898;6.992;2023-03-23T04:18:15;7.18;;;3.60;;
61200;SDS011;47065;52.898;6.992;2023-03-23T04:20:46;5.65;;;3.25;;
61200;SDS011;47065;52.898;6.992;2023-03-23T04:23:14;3.88;;;3.38;;
61200;SDS011;47065;52.898;6.992;2023-03-23T04:25:45;3.92;;;3.42;;
61200;SDS011;47065;52.898;6.992;2023-03-23T04:28:12;4.03;;;3.55;;
61200;SDS011;47065;52.898;6.992;2023-03-23T04:30:38;6.45;;;3.17;;
61200;SDS011;47065;52.898;6.992;2023-03-23T04:33:08;4.53;;;3.25;;
61200;SDS011;47065;52.898;6.992;2023-03-23T04:35:39;5.93;;;3.60;;
61200;SDS011;47065;52.898;6.992;2023-03-23T04:38:10;4.88;;;3.42;;
61200;SDS011;47065;52.898;6.992;2023-03-23T04:40:37;5.50;;;3.67;;
61200;SDS011;47065;52.898;6.992;2023-03-23T04:43:05;5.10;;;3.35;;
61200;SDS011;47065;52.898;6.992;2023-03-23T04:45:31;8.57;;;4.35;;
61200;SDS011;47065;52.898;6.992;2023-03-23T04:47:58;8.15;;;3.58;;
61200;SDS011;47065;52.898;6.992;2023-03-23T04:50:29;6.95;;;3.70;;
61200;SDS011;47065;52.898;6.992;2023-03-23T04:52:57;6.80;;;3.95;;
61200;SDS011;47065;52.898;6.992;2023-03-23T04:55:29;4.90;;;3.65;;
61200;SDS011;47065;52.898;6.992;2023-03-23T04:57:56;4.88;;;3.53;;
61200;SDS011;47065;52.898;6.992;2023-03-23T05:00:25;5.57;;;3.35;;
61200;SDS011;47065;52.898;6.992;2023-03-23T05:02:51;4.88;;;3.30;;
61200;SDS011;47065;52.898;6.992;2023-03-23T05:05:19;7.00;;;3.67;;
61200;SDS011;47065;52.898;6.992;2023-03-23T05:07:45;7.18;;;3.90;;
61200;SDS011;47065;52.898;6.992;2023-03-23T05:10:12;6.78;;;3.78;;
61200;SDS011;47065;52.898;6.992;2023-03-23T05:12:39;8.13;;;4.10;;
61200;SDS011;47065;52.898;6.992;2023-03-23T05:15:05;7.05;;;4.10;;
61200;SDS011;47065;52.898;6.992;2023-03-23T05:17:32;9.43;;;4.03;;
61200;SDS011;47065;52.898;6.992;2023-03-23T05:19:59;7.50;;;4.00;;
61200;SDS011;47065;52.898;6.992;2023-03-23T05:22:28;9.35;;;4.35;;
61200;SDS011;47065;52.898;6.992;2023-03-23T05:24:57;11.88;;;4.55;;
61200;SDS011;47065;52.898;6.992;2023-03-23T05:27:29;13.13;;;5.10;;
61200;SDS011;47065;52.898;6.992;2023-03-23T05:29:56;6.85;;;3.53;;
61200;SDS011;47065;52.898;6.992;2023-03-23T05:32:24;4.13;;;1.73;;
61200;SDS011;47065;52.898;6.992;2023-03-23T05:34:57;6.45;;;2.22;;
61200;SDS011;47065;52.898;6.992;2023-03-23T05:37:24;5.10;;;1.60;;
61200;SDS011;47065;52.898;6.992;2023-03-23T05:39:52;4.32;;;2.00;;
61200;SDS011;47065;52.898;6.992;2023-03-23T05:42:20;8.88;;;2.90;;
61200;SDS011;47065;52.898;6.992;2023-03-23T05:44:47;5.85;;;2.00;;
61200;SDS011;47065;52.898;6.992;2023-03-23T05:47:13;7.93;;;2.70;;
61200;SDS011;47065;52.898;6.992;2023-03-23T05:49:39;11.15;;;3.05;;
61200;SDS011;47065;52.898;6.992;2023-03-23T05:52:04;4.93;;;2.47;;
61200;SDS011;47065;52.898;6.992;2023-03-23T05:54:30;11.73;;;3.00;;
61200;SDS011;47065;52.898;6.992;2023-03-23T05:56:56;10.70;;;3.33;;
61200;SDS011;47065;52.898;6.992;2023-03-23T05:59:21;11.50;;;3.00;;
61200;SDS011;47065;52.898;6.992;2023-03-23T06:01:47;9.98;;;2.58;;
61200;SDS011;47065;52.898;6.992;2023-03-23T06:04:13;7.90;;;2.55;;
61200;SDS011;47065;52.898;6.992;2023-03-23T06:06:38;6.47;;;2.25;;
61200;SDS011;47065;52.898;6.992;2023-03-23T06:09:06;9.95;;;2.22;;
61200;SDS011;47065;52.898;6.992;2023-03-23T06:11:32;13.43;;;3.97;;
61200;SDS011;47065;52.898;6.992;2023-03-23T06:13:58;11.43;;;3.17;;
61200;SDS011;47065;52.898;6.992;2023-03-23T06:16:23;10.55;;;2.72;;
61200;SDS011;47065;52.898;6.992;2023-03-23T06:18:53;10.68;;;2.72;;
61200;SDS011;47065;52.898;6.992;2023-03-23T06:21:18;7.40;;;2.42;;
61200;SDS011;47065;52.898;6.992;2023-03-23T06:23:44;8.43;;;2.15;;
61200;SDS011;47065;52.898;6.992;2023-03-23T06:26:11;7.38;;;2.17;;
61200;SDS011;47065;52.898;6.992;2023-03-23T06:28:42;12.32;;;2.88;;
61200;SDS011;47065;52.898;6.992;2023-03-23T06:31:12;13.70;;;2.88;;
61200;SDS011;47065;52.898;6.992;2023-03-23T06:33:39;9.98;;;2.72;;
61200;SDS011;47065;52.898;6.992;2023-03-23T06:36:06;13.45;;;2.53;;
61200;SDS011;47065;52.898;6.992;2023-03-23T06:38:32;14.15;;;3.05;;
61200;SDS011;47065;52.898;6.992;2023-03-23T06:40:57;10.20;;;2.60;;
61200;SDS011;47065;52.898;6.992;2023-03-23T06:43:23;4.38;;;2.17;;
61200;SDS011;47065;52.898;6.992;2023-03-23T06:45:49;9.10;;;2.03;;
61200;SDS011;47065;52.898;6.992;2023-03-23T06:48:16;7.22;;;2.75;;
61200;SDS011;47065;52.898;6.992;2023-03-23T06:50:42;8.95;;;2.40;;
61200;SDS011;47065;52.898;6.992;2023-03-23T06:53:09;6.38;;;2.63;;
61200;SDS011;47065;52.898;6.992;2023-03-23T06:55:35;15.00;;;3.50;;
61200;SDS011;47065;52.898;6.992;2023-03-23T06:58:01;9.68;;;2.25;;
61200;SDS011;47065;52.898;6.992;2023-03-23T07:00:27;10.15;;;3.03;;
61200;SDS011;47065;52.898;6.992;2023-03-23T07:02:54;10.23;;;3.13;;
61200;SDS011;47065;52.898;6.992;2023-03-23T07:05:20;16.67;;;3.78;;
61200;SDS011;47065;52.898;6.992;2023-03-23T07:07:46;12.88;;;3.67;;
61200;SDS011;47065;52.898;6.992;2023-03-23T07:10:12;11.57;;;3.17;;
61200;SDS011;47065;52.898;6.992;2023-03-23T07:12:37;11.93;;;2.97;;
61200;SDS011;47065;52.898;6.992;2023-03-23T07:15:03;11.95;;;3.20;;
61200;SDS011;47065;52.898;6.992;2023-03-23T07:17:30;10.07;;;2.83;;
61200;SDS011;47065;52.898;6.992;2023-03-23T07:19:56;7.80;;;2.33;;
61200;SDS011;47065;52.898;6.992;2023-03-23T07:22:22;11.27;;;3.00;;
61200;SDS011;47065;52.898;6.992;2023-03-23T07:24:47;10.95;;;3.45;;
61200;SDS011;47065;52.898;6.992;2023-03-23T07:27:13;10.77;;;3.72;;
61200;SDS011;47065;52.898;6.992;2023-03-23T07:29:39;18.73;;;3.88;;
61200;SDS011;47065;52.898;6.992;2023-03-23T07:32:05;12.07;;;3.60;;
61200;SDS011;47065;52.898;6.992;2023-03-23T07:34:35;14.50;;;3.55;;
61200;SDS011;47065;52.898;6.992;2023-03-23T07:37:02;14.25;;;3.40;;
61200;SDS011;47065;52.898;6.992;2023-03-23T07:39:28;11.90;;;3.38;;
61200;SDS011;47065;52.898;6.992;2023-03-23T07:41:54;13.38;;;2.95;;
61200;SDS011;47065;52.898;6.992;2023-03-23T07:44:19;14.35;;;3.78;;
61200;SDS011;47065;52.898;6.992;2023-03-23T07:46:45;12.43;;;4.28;;
61200;SDS011;47065;52.898;6.992;2023-03-23T07:49:12;8.15;;;3.53;;
61200;SDS011;47065;52.898;6.992;2023-03-23T07:51:37;11.70;;;3.55;;
61200;SDS011;47065;52.898;6.992;2023-03-23T07:54:04;10.27;;;3.13;;
61200;SDS011;47065;52.898;6.992;2023-03-23T07:56:32;13.88;;;3.85;;
61200;SDS011;47065;52.898;6.992;2023-03-23T07:58:59;20.88;;;4.07;;
61200;SDS011;47065;52.898;6.992;2023-03-23T08:01:25;19.13;;;4.88;;
61200;SDS011;47065;52.898;6.992;2023-03-23T08:03:51;10.20;;;3.88;;
61200;SDS011;47065;52.898;6.992;2023-03-23T08:06:19;10.38;;;3.60;;
61200;SDS011;47065;52.898;6.992;2023-03-23T08:08:46;13.27;;;4.38;;
61200;SDS011;47065;52.898;6.992;2023-03-23T08:11:12;10.27;;;3.55;;
61200;SDS011;47065;52.898;6.992;2023-03-23T08:13:40;17.48;;;4.95;;
61200;SDS011;47065;52.898;6.992;2023-03-23T08:16:06;11.57;;;3.60;;
61200;SDS011;47065;52.898;6.992;2023-03-23T08:18:34;15.70;;;4.00;;
61200;SDS011;47065;52.898;6.992;2023-03-23T08:21:03;13.88;;;5.32;;
61200;SDS011;47065;52.898;6.992;2023-03-23T08:23:30;10.65;;;4.47;;
61200;SDS011;47065;52.898;6.992;2023-03-23T08:25:57;11.38;;;3.13;;
61200;SDS011;47065;52.898;6.992;2023-03-23T08:28:24;18.20;;;3.83;;
61200;SDS011;47065;52.898;6.992;2023-03-23T08:30:50;13.70;;;3.20;;
61200;SDS011;47065;52.898;6.992;2023-03-23T08:33:16;11.93;;;3.17;;
61200;SDS011;47065;52.898;6.992;2023-03-23T08:35:53;10.23;;;3.63;;
61200;SDS011;47065;52.898;6.992;2023-03-23T08:38:23;12.10;;;2.97;;
61200;SDS011;47065;52.898;6.992;2023-03-23T08:40:49;13.63;;;4.00;;
61200;SDS011;47065;52.898;6.992;2023-03-23T08:43:25;12.57;;;3.33;;
61200;SDS011;47065;52.898;6.992;2023-03-23T08:45:52;12.05;;;3.55;;
61200;SDS011;47065;52.898;6.992;2023-03-23T08:48:18;13.43;;;4.15;;
61200;SDS011;47065;52.898;6.992;2023-03-23T08:50:44;18.55;;;4.72;;
61200;SDS011;47065;52.898;6.992;2023-03-23T08:53:10;16.70;;;3.55;;
61200;SDS011;47065;52.898;6.992;2023-03-23T08:55:36;22.02;;;3.78;;
61200;SDS011;47065;52.898;6.992;2023-03-23T08:58:03;15.65;;;3.75;;
61200;SDS011;47065;52.898;6.992;2023-03-23T09:00:29;16.05;;;4.43;;
61200;SDS011;47065;52.898;6.992;2023-03-23T09:02:55;19.58;;;4.72;;
61200;SDS011;47065;52.898;6.992;2023-03-23T09:05:22;22.52;;;3.75;;
61200;SDS011;47065;52.898;6.992;2023-03-23T09:07:51;22.08;;;3.85;;
61200;SDS011;47065;52.898;6.992;2023-03-23T09:10:18;21.70;;;4.60;;
61200;SDS011;47065;52.898;6.992;2023-03-23T09:12:44;15.45;;;4.28;;
61200;SDS011;47065;52.898;6.992;2023-03-23T09:15:12;17.90;;;5.63;;
61200;SDS011;47065;52.898;6.992;2023-03-23T09:17:40;20.85;;;3.83;;
61200;SDS011;47065;52.898;6.992;2023-03-23T09:20:08;21.65;;;4.35;;
61200;SDS011;47065;52.898;6.992;2023-03-23T09:22:38;14.02;;;4.78;;
61200;SDS011;47065;52.898;6.992;2023-03-23T09:25:06;16.60;;;3.92;;
61200;SDS011;47065;52.898;6.992;2023-03-23T09:27:33;18.45;;;5.05;;
61200;SDS011;47065;52.898;6.992;2023-03-23T09:30:01;22.60;;;3.83;;
61200;SDS011;47065;52.898;6.992;2023-03-23T09:32:32;15.73;;;4.22;;
61200;SDS011;47065;52.898;6.992;2023-03-23T09:34:59;19.88;;;4.38;;
61200;SDS011;47065;52.898;6.992;2023-03-23T09:37:26;13.38;;;3.80;;
61200;SDS011;47065;52.898;6.992;2023-03-23T09:39:51;11.23;;;3.88;;
61200;SDS011;47065;52.898;6.992;2023-03-23T09:42:25;22.55;;;4.35;;
61200;SDS011;47065;52.898;6.992;2023-03-23T09:52:51;9.38;;;3.67;;
61200;SDS011;47065;52.898;6.992;2023-03-23T09:55:23;19.15;;;4.97;;
61200;SDS011;47065;52.898;6.992;2023-03-23T09:58:02;14.60;;;4.53;;
61200;SDS011;47065;52.898;6.992;2023-03-23T10:00:36;16.15;;;4.53;;
61200;SDS011;47065;52.898;6.992;2023-03-23T10:03:17;12.43;;;3.72;;
61200;SDS011;47065;52.898;6.992;2023-03-23T10:08:21;13.15;;;3.45;;
61200;SDS011;47065;52.898;6.992;2023-03-23T10:16:21;12.13;;;4.60;;
61200;SDS011;47065;52.898;6.992;2023-03-23T10:21:29;12.73;;;4.32;;
61200;SDS011;47065;52.898;6.992;2023-03-23T10:23:59;7.68;;;2.60;;
61200;SDS011;47065;52.898;6.992;2023-03-23T10:26:29;19.85;;;3.85;;
61200;SDS011;47065;52.898;6.992;2023-03-23T10:29:14;11.43;;;2.90;;
61200;SDS011;47065;52.898;6.992;2023-03-23T10:31:52;10.77;;;2.63;;
61200;SDS011;47065;52.898;6.992;2023-03-23T10:39:38;8.88;;;2.70;;
61200;SDS011;47065;52.898;6.992;2023-03-23T10:42:10;9.18;;;2.63;;
61200;SDS011;47065;52.898;6.992;2023-03-23T10:44:35;6.07;;;1.98;;
61200;SDS011;47065;52.898;6.992;2023-03-23T10:47:03;7.13;;;2.08;;
61200;SDS011;47065;52.898;6.992;2023-03-23T10:49:33;6.43;;;2.72;;
61200;SDS011;47065;52.898;6.992;2023-03-23T10:52:24;8.77;;;2.55;;
61200;SDS011;47065;52.898;6.992;2023-03-23T10:54:55;8.65;;;2.30;;
61200;SDS011;47065;52.898;6.992;2023-03-23T10:57:27;10.73;;;2.72;;
61200;SDS011;47065;52.898;6.992;2023-03-23T11:00:14;10.23;;;2.28;;
61200;SDS011;47065;52.898;6.992;2023-03-23T11:03:33;5.22;;;2.47;;
61200;SDS011;47065;52.898;6.992;2023-03-23T11:05:34;7.18;;;1.70;;
61200;SDS011;47065;52.898;6.992;2023-03-23T11:08:11;9.43;;;2.30;;
61200;SDS011;47065;52.898;6.992;2023-03-23T11:10:56;8.93;;;3.03;;
61200;SDS011;47065;52.898;6.992;2023-03-23T11:13:31;8.50;;;2.70;;
61200;SDS011;47065;52.898;6.992;2023-03-23T11:15:58;7.63;;;2.60;;
61200;SDS011;47065;52.898;6.992;2023-03-23T11:21:08;10.35;;;2.55;;
61200;SDS011;47065;52.898;6.992;2023-03-23T11:23:38;11.57;;;2.40;;
61200;SDS011;47065;52.898;6.992;2023-03-23T11:26:22;9.82;;;2.03;;
61200;SDS011;47065;52.898;6.992;2023-03-23T11:29:10;4.43;;;2.00;;
61200;SDS011;47065;52.898;6.992;2023-03-23T11:31:42;12.68;;;2.33;;
61200;SDS011;47065;52.898;6.992;2023-03-23T11:34:53;10.75;;;2.50;;
61200;SDS011;47065;52.898;6.992;2023-03-23T11:37:22;7.50;;;2.42;;
61200;SDS011;47065;52.898;6.992;2023-03-23T11:42:47;8.95;;;1.83;;
61200;SDS011;47065;52.898;6.992;2023-03-23T11:45:26;6.43;;;2.33;;
61200;SDS011;47065;52.898;6.992;2023-03-23T11:51:05;14.88;;;2.60;;
61200;SDS011;47065;52.898;6.992;2023-03-23T11:53:45;6.03;;;1.77;;
61200;SDS011;47065;52.898;6.992;2023-03-23T11:56:33;7.85;;;2.10;;
61200;SDS011;47065;52.898;6.992;2023-03-23T11:59:01;13.15;;;3.00;;
61200;SDS011;47065;52.898;6.992;2023-03-23T12:12:16;6.32;;;2.30;;
61200;SDS011;47065;52.898;6.992;2023-03-23T12:14:55;8.05;;;2.10;;
61200;SDS011;47065;52.898;6.992;2023-03-23T12:23:05;6.18;;;2.53;;
61200;SDS011;47065;52.898;6.992;2023-03-23T12:25:46;10.68;;;2.28;;
61200;SDS011;47065;52.898;6.992;2023-03-23T12:36:30;9.80;;;2.28;;
61200;SDS011;47065;52.898;6.992;2023-03-23T12:39:14;8.00;;;2.97;;
61200;SDS011;47065;52.898;6.992;2023-03-23T12:44:32;9.73;;;2.22;;
61200;SDS011;47065;52.898;6.992;2023-03-23T12:49:55;7.65;;;2.17;;
61200;SDS011;47065;52.898;6.992;2023-03-23T12:55:18;8.27;;;2.67;;
61200;SDS011;47065;52.898;6.992;2023-03-23T12:57:56;7.63;;;1.85;;
61200;SDS011;47065;52.898;6.992;2023-03-23T13:03:22;9.65;;;2.85;;
61200;SDS011;47065;52.898;6.992;2023-03-23T13:05:57;10.73;;;2.30;;
61200;SDS011;47065;52.898;6.992;2023-03-23T13:08:55;10.82;;;1.98;;
61200;SDS011;47065;52.898;6.992;2023-03-23T13:11:42;11.83;;;2.50;;
61200;SDS011;47065;52.898;6.992;2023-03-23T13:28:27;8.88;;;2.40;;
61200;SDS011;47065;52.898;6.992;2023-03-23T13:31:17;12.50;;;2.50;;
61200;SDS011;47065;52.898;6.992;2023-03-23T13:33:50;6.65;;;1.80;;
61200;SDS011;47065;52.898;6.992;2023-03-23T13:36:28;12.80;;;2.95;;
61200;SDS011;47065;52.898;6.992;2023-03-23T13:38:57;6.82;;;1.85;;
61200;SDS011;47065;52.898;6.992;2023-03-23T13:41:24;8.55;;;1.75;;
61200;SDS011;47065;52.898;6.992;2023-03-23T13:43:52;10.88;;;3.10;;
61200;SDS011;47065;52.898;6.992;2023-03-23T13:46:29;5.70;;;2.10;;
61200;SDS011;47065;52.898;6.992;2023-03-23T13:49:03;10.68;;;2.60;;
61200;SDS011;47065;52.898;6.992;2023-03-23T13:56:42;11.43;;;2.03;;
61200;SDS011;47065;52.898;6.992;2023-03-23T13:59:28;7.07;;;2.60;;
61200;SDS011;47065;52.898;6.992;2023-03-23T14:04:56;10.68;;;2.22;;
61200;SDS011;47065;52.898;6.992;2023-03-23T14:07:22;8.88;;;1.88;;
61200;SDS011;47065;52.898;6.992;2023-03-23T14:09:50;9.13;;;2.17;;
61200;SDS011;47065;52.898;6.992;2023-03-23T14:12:26;11.48;;;1.92;;
61200;SDS011;47065;52.898;6.992;2023-03-23T14:14:59;4.82;;;1.33;;
61200;SDS011;47065;52.898;6.992;2023-03-23T14:17:30;9.27;;;2.95;;
61200;SDS011;47065;52.898;6.992;2023-03-23T14:19:58;7.13;;;2.28;;
61200;SDS011;47065;52.898;6.992;2023-03-23T14:22:25;10.20;;;2.17;;
61200;SDS011;47065;52.898;6.992;2023-03-23T14:24:59;9.50;;;2.15;;
61200;SDS011;47065;52.898;6.992;2023-03-23T14:27:26;11.15;;;2.58;;
61200;SDS011;47065;52.898;6.992;2023-03-23T14:29:59;8.90;;;2.50;;
61200;SDS011;47065;52.898;6.992;2023-03-23T14:32:27;7.37;;;2.13;;
61200;SDS011;47065;52.898;6.992;2023-03-23T14:34:56;10.88;;;2.08;;
61200;SDS011;47065;52.898;6.992;2023-03-23T14:37:22;8.00;;;1.70;;
61200;SDS011;47065;52.898;6.992;2023-03-23T14:39:49;9.85;;;2.70;;
61200;SDS011;47065;52.898;6.992;2023-03-23T14:42:19;9.15;;;2.22;;
61200;SDS011;47065;52.898;6.992;2023-03-23T14:44:55;6.63;;;1.92;;
61200;SDS011;47065;52.898;6.992;2023-03-23T14:47:24;9.82;;;1.98;;
61200;SDS011;47065;52.898;6.992;2023-03-23T14:49:53;8.60;;;2.58;;
61200;SDS011;47065;52.898;6.992;2023-03-23T14:52:21;8.93;;;3.17;;
61200;SDS011;47065;52.898;6.992;2023-03-23T14:54:49;8.30;;;1.60;;
61200;SDS011;47065;52.898;6.992;2023-03-23T14:57:19;5.57;;;1.65;;
61200;SDS011;47065;52.898;6.992;2023-03-23T14:59:53;8.55;;;1.83;;
61200;SDS011;47065;52.898;6.992;2023-03-23T15:02:27;7.72;;;1.88;;
61200;SDS011;47065;52.898;6.992;2023-03-23T15:04:58;13.00;;;2.15;;
61200;SDS011;47065;52.898;6.992;2023-03-23T15:07:29;7.85;;;1.75;;
61200;SDS011;47065;52.898;6.992;2023-03-23T15:10:00;6.13;;;2.60;;
61200;SDS011;47065;52.898;6.992;2023-03-23T15:12:29;11.18;;;1.77;;
61200;SDS011;47065;52.898;6.992;2023-03-23T15:14:59;6.78;;;2.00;;
61200;SDS011;47065;52.898;6.992;2023-03-23T15:17:29;10.70;;;2.25;;
61200;SDS011;47065;52.898;6.992;2023-03-23T15:19:57;6.32;;;1.83;;
61200;SDS011;47065;52.898;6.992;2023-03-23T15:32:53;10.32;;;2.03;;
61200;SDS011;47065;52.898;6.992;2023-03-23T15:35:24;13.27;;;3.10;;
61200;SDS011;47065;52.898;6.992;2023-03-23T15:37:58;9.68;;;2.72;;
61200;SDS011;47065;52.898;6.992;2023-03-23T15:40:26;6.47;;;2.38;;
61200;SDS011;47065;52.898;6.992;2023-03-23T15:43:07;13.38;;;2.83;;
61200;SDS011;47065;52.898;6.992;2023-03-23T15:48:23;11.68;;;2.45;;
61200;SDS011;47065;52.898;6.992;2023-03-23T15:50:49;13.07;;;2.42;;
61200;SDS011;47065;52.898;6.992;2023-03-23T15:53:23;14.93;;;3.25;;
61200;SDS011;47065;52.898;6.992;2023-03-23T15:55:52;11.35;;;2.80;;
61200;SDS011;47065;52.898;6.992;2023-03-23T15:58:18;8.23;;;2.08;;
61200;SDS011;47065;52.898;6.992;2023-03-23T16:00:44;7.45;;;2.10;;
61200;SDS011;47065;52.898;6.992;2023-03-23T16:03:12;4.57;;;2.30;;
61200;SDS011;47065;52.898;6.992;2023-03-23T16:05:49;9.88;;;2.58;;
61200;SDS011;47065;52.898;6.992;2023-03-23T16:08:15;5.78;;;2.17;;
61200;SDS011;47065;52.898;6.992;2023-03-23T16:10:41;6.85;;;2.22;;
61200;SDS011;47065;52.898;6.992;2023-03-23T16:13:07;6.35;;;1.77;;
61200;SDS011;47065;52.898;6.992;2023-03-23T16:15:33;10.85;;;2.60;;
61200;SDS011;47065;52.898;6.992;2023-03-23T16:17:58;8.15;;;2.22;;
61200;SDS011;47065;52.898;6.992;2023-03-23T16:20:24;8.05;;;2.72;;
61200;SDS011;47065;52.898;6.992;2023-03-23T16:22:50;5.40;;;2.45;;
61200;SDS011;47065;52.898;6.992;2023-03-23T16:25:17;8.65;;;1.88;;
61200;SDS011;47065;52.898;6.992;2023-03-23T16:27:43;8.45;;;1.92;;
61200;SDS011;47065;52.898;6.992;2023-03-23T16:30:22;7.13;;;2.00;;
61200;SDS011;47065;52.898;6.992;2023-03-23T16:32:49;8.43;;;2.13;;
61200;SDS011;47065;52.898;6.992;2023-03-23T16:35:15;10.13;;;3.05;;
61200;SDS011;47065;52.898;6.992;2023-03-23T16:37:47;5.30;;;2.70;;
61200;SDS011;47065;52.898;6.992;2023-03-23T16:40:15;6.93;;;2.75;;
61200;SDS011;47065;52.898;6.992;2023-03-23T16:42:42;7.50;;;2.08;;
61200;SDS011;47065;52.898;6.992;2023-03-23T16:45:09;7.50;;;3.30;;
61200;SDS011;47065;52.898;6.992;2023-03-23T16:47:35;6.60;;;1.48;;
61200;SDS011;47065;52.898;6.992;2023-03-23T16:50:02;3.60;;;1.60;;
61200;SDS011;47065;52.898;6.992;2023-03-23T16:52:31;5.90;;;1.40;;
61200;SDS011;47065;52.898;6.992;2023-03-23T16:54:57;4.90;;;1.65;;
61200;SDS011;47065;52.898;6.992;2023-03-23T16:57:23;5.82;;;1.45;;
61200;SDS011;47065;52.898;6.992;2023-03-23T16:59:49;7.25;;;1.63;;